Ryans Creek (NZRC)

Aerodrome — Elev 288
New Zealand
S046.53.59.000 E168.06.07.000
Loading chart...

Ryans Creek aerodrome is owned and operated by Stewart Island Flights, based in Invercargill. Ryans Creek is a challenging chip-seal strip featuring an interesting slope with unusual windshear combinations with different wind directions. Stewart Island Flights opearte two BN2A Islander aircraft and two Cherokee 6's (PA32) aircraft to and from Invercargill from Ryans Creek. Occassionally you may see the odd touring aircraft or a tail-dragging Cessna 185 on stopover from Masons Bay dropping off hikers for the various walks and tracks Stewart Island has to offer.  For IFR flights refer to the Ryans Creek arrival/departure procedure on the first page of the chart link below.

Current Weather

NZRC 232200Z 36006KT 20KM BKN055 07/06 Q0993 RMK ALT NZNV VATSIM USE ONLY

Published 41 minutes ago

Airport Activity

Loading chart...
Loading chart...

Positions

CallsignRadio Name / Freq / Voice Room / TypeFrequencyVoice RoomType
NZCH-D_CTR Christchurch Control
129.200
nzch-d_ctr
129.200nzch-d_ctr
NZCH-S_CTR Christchurch Control
129.300
nzch-s_ctr
129.300nzch-s_ctr
UNICOM NZZC UNICOM
122.800
unicom_nzzc
122.800unicom_nzzc

Charts